createdAt,value
2019-03-05T00:00:19.154Z,98774.56
2019-03-05T00:02:50.409Z,98766.49
2019-03-05T00:05:20.129Z,98775.91
2019-03-05T00:07:49.956Z,98783.84
2019-03-05T00:10:19.688Z,98789.77
2019-03-05T00:12:49.403Z,98776.84
2019-03-05T00:15:22.439Z,98799.48
2019-03-05T00:17:52.085Z,98797.33
2019-03-05T00:20:22.118Z,98807.75
2019-03-05T00:22:51.911Z,98801.11
2019-03-05T00:25:21.836Z,98799.73
2019-03-05T00:27:59.348Z,98799.73
2019-03-05T00:30:50.014Z,98792.44
2019-03-05T00:33:32.814Z,98789.62
2019-03-05T00:36:32.316Z,98794.65
2019-03-05T00:39:45.678Z,98783.98
2019-03-05T00:42:52.291Z,98775.90
2019-03-05T00:46:21.869Z,98779.91
2019-03-05T00:49:38.155Z,98782.41
2019-03-05T00:52:35.768Z,98778.31
2019-03-05T00:55:30.218Z,98780.94
2019-03-05T00:58:34.322Z,98775.27
2019-03-05T01:01:28.734Z,98785.39
2019-03-05T01:04:51.913Z,98789.84
2019-03-05T01:07:22.003Z,98800.38
2019-03-05T01:09:51.628Z,98801.83
2019-03-05T01:12:22.918Z,98796.23
2019-03-05T01:14:53.799Z,98806.97
2019-03-05T01:17:23.544Z,98809.85
2019-03-05T01:19:53.174Z,98817.99
2019-03-05T01:22:23.030Z,98832.23
2019-03-05T01:24:53.318Z,98826.23
2019-03-05T01:27:23.791Z,98839.48
2019-03-05T01:29:54.341Z,98843.73
2019-03-05T01:32:48.309Z,98806.61
2019-03-05T01:35:37.960Z,98846.50
2019-03-05T01:38:08.199Z,98829.64
2019-03-05T01:40:47.180Z,98848.36
2019-03-05T01:43:18.772Z,98837.55
2019-03-05T01:45:50.368Z,98847.88
2019-03-05T01:48:20.547Z,98842.80
2019-03-05T01:50:51.161Z,98848.36
2019-03-05T01:53:25.086Z,98850.67
2019-03-05T01:55:54.994Z,98862.64
2019-03-05T01:58:24.630Z,98872.77
2019-03-05T02:00:55.377Z,98878.84
2019-03-05T02:03:25.089Z,98878.17
2019-03-05T02:05:55.260Z,98885.87
2019-03-05T02:08:25.001Z,98883.05
2019-03-05T02:10:55.508Z,98874.28
2019-03-05T02:13:25.739Z,98878.09
2019-03-05T02:15:55.671Z,98884.56
2019-03-05T02:18:27.005Z,98873.05
2019-03-05T02:20:57.328Z,98877.72
2019-03-05T02:23:50.390Z,98883.72
2019-03-05T02:26:51.018Z,98883.80
2019-03-05T02:29:50.327Z,98878.00
2019-03-05T02:32:45.221Z,98881.16
2019-03-05T02:35:48.944Z,98883.22
2019-03-05T02:38:37.759Z,98875.56
2019-03-05T02:41:19.680Z,98874.33
2019-03-05T02:44:34.038Z,98879.86
2019-03-05T02:47:45.217Z,98875.45
2019-03-05T02:50:55.631Z,98890.44
2019-03-05T02:54:31.363Z,98876.49
2019-03-05T02:57:09.580Z,98876.49
2019-03-05T02:59:39.467Z,98885.86
2019-03-05T03:02:21.973Z,98884.36
2019-03-05T03:04:54.047Z,98891.30
2019-03-05T03:07:23.774Z,98889.61
2019-03-05T03:10:15.689Z,98894.77
2019-03-05T03:12:45.719Z,98898.10
2019-03-05T03:15:16.814Z,98895.80
2019-03-05T03:17:47.229Z,98902.51
2019-03-05T03:20:18.136Z,98900.45
2019-03-05T03:22:48.137Z,98914.30
2019-03-05T03:25:19.853Z,98904.77
2019-03-05T03:27:49.822Z,98900.08
2019-03-05T03:30:24.691Z,98899.80
2019-03-05T03:32:54.338Z,98902.53
2019-03-05T03:35:24.010Z,98914.88
2019-03-05T03:37:54.051Z,98910.11
2019-03-05T03:40:25.933Z,98907.48
2019-03-05T03:42:56.149Z,98908.04
2019-03-05T03:45:26.732Z,98915.82
2019-03-05T03:47:56.458Z,98919.91
2019-03-05T03:50:26.412Z,98927.02
2019-03-05T03:52:56.119Z,98930.94
2019-03-05T03:55:25.903Z,98939.96
2019-03-05T03:57:55.563Z,98935.08
2019-03-05T04:00:25.951Z,98940.25
2019-03-05T04:02:56.304Z,98947.63
2019-03-05T04:05:26.321Z,98948.10
2019-03-05T04:07:56.027Z,98951.28
2019-03-05T04:10:26.023Z,98955.69
2019-03-05T04:12:55.671Z,98961.97
2019-03-05T04:15:25.394Z,98970.67
2019-03-05T04:17:55.360Z,98967.17
2019-03-05T04:20:28.404Z,98973.56
2019-03-05T04:22:58.696Z,98961.48
2019-03-05T04:25:28.696Z,98963.50
2019-03-05T04:27:59.014Z,98970.66
2019-03-05T04:30:28.752Z,98967.65
2019-03-05T04:32:58.401Z,98970.46
2019-03-05T04:35:28.114Z,98976.55
2019-03-05T04:37:57.735Z,98963.98
2019-03-05T04:40:28.175Z,98983.58
2019-03-05T04:42:57.900Z,98969.34
2019-03-05T04:45:49.626Z,98984.05
2019-03-05T04:48:19.449Z,98983.56
2019-03-05T04:50:58.595Z,98987.50
2019-03-05T04:53:28.474Z,98982.80
2019-03-05T04:55:58.397Z,98981.58
2019-03-05T04:58:28.076Z,98993.22
2019-03-05T05:00:57.828Z,98987.86
2019-03-05T05:03:27.483Z,98985.70
2019-03-05T05:05:57.255Z,98994.53
2019-03-05T05:08:26.945Z,98991.78
2019-03-05T05:10:56.693Z,98989.36
2019-03-05T05:13:26.356Z,98994.13
2019-03-05T05:15:57.398Z,98994.81
2019-03-05T05:18:28.748Z,99006.77
2019-03-05T05:21:00.978Z,99007.06
2019-03-05T05:23:30.933Z,99008.97
2019-03-05T05:26:01.157Z,99014.77
2019-03-05T05:28:30.787Z,99017.55
2019-03-05T05:31:00.423Z,99017.27
2019-03-05T05:33:30.107Z,99019.72
2019-03-05T05:36:00.202Z,99024.78
2019-03-05T05:38:29.876Z,99022.80
2019-03-05T05:40:59.926Z,99023.45
2019-03-05T05:43:30.789Z,99031.90
2019-03-05T05:46:00.494Z,99040.13
2019-03-05T05:48:30.617Z,99043.50
2019-03-05T05:51:00.329Z,99054.67
2019-03-05T05:53:29.996Z,99049.78
2019-03-05T05:56:01.129Z,99052.05
2019-03-05T05:58:30.885Z,99039.21
2019-03-05T06:01:02.422Z,99049.23
2019-03-05T06:03:32.098Z,99056.73
2019-03-05T06:06:01.835Z,99051.02
2019-03-05T06:08:31.548Z,99052.25
2019-03-05T06:11:01.469Z,99063.09
2019-03-05T06:13:31.672Z,99068.17
2019-03-05T06:16:01.372Z,99055.34
2019-03-05T06:18:31.049Z,99073.97
2019-03-05T06:21:00.917Z,99069.01
2019-03-05T06:23:30.546Z,99071.63
2019-03-05T06:26:00.179Z,99073.41
2019-03-05T06:28:30.550Z,99080.25
2019-03-05T06:31:00.564Z,99102.63
2019-03-05T06:33:30.492Z,99107.03
2019-03-05T06:36:00.123Z,99106.07
2019-03-05T06:38:29.780Z,99098.77
2019-03-05T06:40:59.484Z,99100.36
2019-03-05T06:43:31.471Z,99114.61
2019-03-05T06:46:01.110Z,99116.48
2019-03-05T06:48:30.784Z,99114.72
2019-03-05T06:51:01.415Z,99121.55
2019-03-05T06:53:31.461Z,99126.59
2019-03-05T06:56:02.127Z,99128.36
2019-03-05T06:58:31.910Z,99131.73
2019-03-05T07:01:01.831Z,99141.39
2019-03-05T07:03:31.504Z,99138.84
2019-03-05T07:06:37.110Z,99146.09
2019-03-05T07:09:11.923Z,99151.59
2019-03-05T07:11:55.711Z,99153.78
2019-03-05T07:14:32.106Z,99159.57
2019-03-05T07:17:16.506Z,99160.11
2019-03-05T07:20:19.143Z,99167.47
2019-03-05T07:23:00.365Z,99171.90
2019-03-05T07:25:30.362Z,99173.34
2019-03-05T07:28:00.430Z,99176.84
2019-03-05T07:30:30.073Z,99178.53
2019-03-05T07:33:00.385Z,99185.37
2019-03-05T07:35:34.304Z,99182.30
2019-03-05T07:38:04.352Z,99191.39
2019-03-05T07:40:33.965Z,99190.08
2019-03-05T07:43:03.808Z,99195.06
2019-03-05T07:45:33.487Z,99198.69
2019-03-05T07:48:03.582Z,99197.66
2019-03-05T07:50:33.212Z,99208.72
2019-03-05T07:53:02.963Z,99208.36
2019-03-05T07:55:32.944Z,99208.42
2019-03-05T07:58:02.663Z,99224.78
2019-03-05T08:00:32.428Z,99220.73
2019-03-05T08:03:02.439Z,99207.80
2019-03-05T08:05:32.071Z,99222.68
2019-03-05T08:08:40.216Z,99217.94
2019-03-05T08:11:09.853Z,99224.95
2019-03-05T08:14:01.324Z,99221.20
2019-03-05T08:16:32.114Z,99219.55
2019-03-05T08:19:01.874Z,99217.34
2019-03-05T08:21:31.508Z,99218.10
2019-03-05T08:24:01.558Z,99222.95
2019-03-05T08:26:32.488Z,99221.20
2019-03-05T08:29:03.093Z,99234.02
2019-03-05T08:31:33.827Z,99227.08
2019-03-05T08:34:03.780Z,99224.73
2019-03-05T08:36:34.741Z,99237.32
2019-03-05T08:39:06.432Z,99229.87
2019-03-05T08:41:36.822Z,99235.97
2019-03-05T08:44:06.805Z,99250.51
2019-03-05T08:46:36.733Z,99245.98
2019-03-05T08:49:06.901Z,99250.16
2019-03-05T08:51:36.532Z,99250.11
2019-03-05T08:54:07.811Z,99250.80
2019-03-05T08:56:37.626Z,99258.06
2019-03-05T08:59:07.286Z,99261.09
2019-03-05T09:01:36.969Z,99253.41
2019-03-05T09:04:06.614Z,99271.34
2019-03-05T09:06:36.287Z,99266.69
2019-03-05T09:09:07.290Z,99264.14
2019-03-05T09:11:38.952Z,99274.64
2019-03-05T09:14:08.902Z,99266.22
2019-03-05T09:16:38.859Z,99278.59
2019-03-05T09:19:08.498Z,99279.91
2019-03-05T09:21:39.182Z,99291.92
2019-03-05T09:24:08.808Z,99294.00
2019-03-05T09:26:38.852Z,99296.81
2019-03-05T09:29:08.754Z,99295.02
2019-03-05T09:31:38.669Z,99292.11
2019-03-05T09:34:08.288Z,99291.74
2019-03-05T09:36:38.304Z,99294.54
2019-03-05T09:39:10.710Z,99295.12
2019-03-05T09:41:40.628Z,99291.53
2019-03-05T09:44:10.578Z,99283.95
2019-03-05T09:46:40.306Z,99294.06
2019-03-05T09:49:09.938Z,99289.00
2019-03-05T09:51:39.632Z,99293.89
2019-03-05T09:54:09.270Z,99297.65
2019-03-05T09:56:38.923Z,99280.20
2019-03-05T09:59:08.712Z,99296.42
2019-03-05T10:01:38.504Z,99296.73
2019-03-05T10:04:08.222Z,99296.73
2019-03-05T10:06:38.093Z,99289.58
2019-03-05T10:09:08.447Z,99288.59
2019-03-05T10:11:38.601Z,99296.59
2019-03-05T10:14:08.667Z,99293.55
2019-03-05T10:16:38.358Z,99300.70
2019-03-05T10:19:08.337Z,99308.58
2019-03-05T10:21:45.756Z,99300.33
2019-03-05T10:24:10.689Z,99309.22
2019-03-05T10:26:40.881Z,99312.92
2019-03-05T10:29:10.720Z,99292.86
2019-03-05T10:31:41.842Z,99296.96
2019-03-05T10:34:11.613Z,99291.95
2019-03-05T10:36:41.587Z,99304.73
2019-03-05T10:39:39.971Z,99306.39
2019-03-05T10:42:10.002Z,99307.80
2019-03-05T10:44:39.883Z,99309.30
2019-03-05T10:47:09.513Z,99310.23
2019-03-05T10:49:39.226Z,99315.91
2019-03-05T10:52:08.968Z,99321.42
2019-03-05T10:54:39.019Z,99318.84
2019-03-05T10:57:09.044Z,99318.33
2019-03-05T10:59:38.685Z,99326.53
2019-03-05T11:02:08.431Z,99326.55
2019-03-05T11:04:45.498Z,99326.10
2019-03-05T11:07:09.830Z,99324.73
2019-03-05T11:09:39.594Z,99327.55
2019-03-05T11:12:09.579Z,99326.41
2019-03-05T11:14:39.317Z,99333.49
2019-03-05T11:17:08.994Z,99334.12
2019-03-05T11:19:39.043Z,99329.08
2019-03-05T11:22:09.908Z,99336.53
2019-03-05T11:24:39.970Z,99332.67
2019-03-05T11:27:09.606Z,99353.35
2019-03-05T11:29:39.609Z,99349.17
2019-03-05T11:32:09.639Z,99335.75
2019-03-05T11:34:39.274Z,99326.49
2019-03-05T11:37:08.936Z,99334.03
2019-03-05T11:39:38.943Z,99329.58
2019-03-05T11:42:08.668Z,99331.16
2019-03-05T11:44:38.625Z,99329.70
2019-03-05T11:47:08.345Z,99335.02
2019-03-05T11:49:38.542Z,99346.53
2019-03-05T11:52:08.194Z,99339.72
2019-03-05T11:54:37.850Z,99344.98
2019-03-05T11:57:08.046Z,99361.55
2019-03-05T11:59:37.736Z,99375.36
2019-03-05T12:02:09.754Z,99377.25
2019-03-05T12:04:38.787Z,99370.62
2019-03-05T12:07:08.829Z,99359.52
2019-03-05T12:09:38.573Z,99375.18
2019-03-05T12:12:08.225Z,99370.23
2019-03-05T12:14:37.953Z,99375.81
2019-03-05T12:17:07.605Z,99377.50
2019-03-05T12:19:37.302Z,99387.55
2019-03-05T12:22:06.938Z,99385.56
2019-03-05T12:24:36.639Z,99382.16
2019-03-05T12:27:06.278Z,99391.95
2019-03-05T12:29:36.288Z,99389.38
2019-03-05T12:32:06.071Z,99389.73
2019-03-05T12:34:36.053Z,99379.83
2019-03-05T12:37:05.692Z,99390.34
2019-03-05T12:39:35.332Z,99379.55
2019-03-05T12:42:05.149Z,99396.63
2019-03-05T12:44:34.804Z,99396.79
2019-03-05T12:47:04.715Z,99394.29
2019-03-05T12:49:34.634Z,99399.03
2019-03-05T12:52:04.585Z,99390.77
2019-03-05T12:54:34.675Z,99394.08
2019-03-05T12:57:04.328Z,99395.73
2019-03-05T12:59:34.088Z,99394.60
2019-03-05T13:02:03.803Z,99399.89
2019-03-05T13:04:33.462Z,99405.61
2019-03-05T13:07:03.387Z,99409.98
2019-03-05T13:09:33.075Z,99411.78
2019-03-05T13:12:03.517Z,99417.24
2019-03-05T13:14:34.290Z,99415.65
2019-03-05T13:17:04.040Z,99428.75
2019-03-05T13:19:33.684Z,99427.64
2019-03-05T13:22:04.857Z,99434.70
2019-03-05T13:24:34.642Z,99418.75
2019-03-05T13:27:04.277Z,99434.60
2019-03-05T13:29:33.944Z,99435.47
2019-03-05T13:32:03.806Z,99439.30
2019-03-05T13:34:33.449Z,99430.86
2019-03-05T13:37:03.331Z,99448.62
2019-03-05T13:39:33.342Z,99460.99
2019-03-05T13:42:03.221Z,99456.09
2019-03-05T13:44:34.321Z,99467.81
2019-03-05T13:47:06.503Z,99458.05
2019-03-05T13:49:43.076Z,99467.17
2019-03-05T13:52:47.391Z,99468.80
2019-03-05T13:55:40.481Z,99463.88
2019-03-05T13:58:34.234Z,99471.66
2019-03-05T14:01:06.668Z,99479.12
2019-03-05T14:03:44.502Z,99473.36
2019-03-05T14:06:41.283Z,99480.49
2019-03-05T14:09:13.764Z,99487.47
2019-03-05T14:11:44.789Z,99485.80
2019-03-05T14:14:19.036Z,99489.95
2019-03-05T14:16:52.362Z,99503.89
2019-03-05T14:19:21.993Z,99500.02
2019-03-05T14:21:51.973Z,99517.05
2019-03-05T14:24:21.696Z,99509.98
2019-03-05T14:26:51.292Z,99507.24
2019-03-05T14:29:20.964Z,99507.77
2019-03-05T14:31:51.227Z,99510.48
2019-03-05T14:34:21.782Z,99519.48
2019-03-05T14:36:51.768Z,99517.34
2019-03-05T14:39:24.704Z,99517.58
2019-03-05T14:41:54.606Z,99519.63
2019-03-05T14:44:24.352Z,99517.64
2019-03-05T14:46:55.629Z,99519.09
2019-03-05T14:49:25.711Z,99523.49
2019-03-05T14:51:55.650Z,99533.38
2019-03-05T14:54:25.334Z,99535.89
2019-03-05T14:56:55.040Z,99536.81
2019-03-05T14:59:24.761Z,99539.78
2019-03-05T15:01:54.393Z,99548.11
2019-03-05T15:04:24.053Z,99544.16
2019-03-05T15:06:53.766Z,99547.47
2019-03-05T15:09:23.419Z,99547.62
2019-03-05T15:11:53.051Z,99558.23
2019-03-05T15:14:22.975Z,99557.48
2019-03-05T15:16:52.813Z,99561.07
2019-03-05T15:19:22.490Z,99554.86
2019-03-05T15:21:52.175Z,99561.63
2019-03-05T15:24:21.807Z,99560.70
2019-03-05T15:26:51.483Z,99548.67
2019-03-05T15:29:21.700Z,99567.09
2019-03-05T15:31:51.344Z,99574.51
2019-03-05T15:34:21.881Z,99573.87
2019-03-05T15:36:52.158Z,99563.06
2019-03-05T15:39:22.020Z,99563.42
2019-03-05T15:41:51.691Z,99578.44
2019-03-05T15:44:21.353Z,99581.35
2019-03-05T15:46:50.999Z,99579.84
2019-03-05T15:49:20.735Z,99578.08
2019-03-05T15:51:50.682Z,99582.31
2019-03-05T15:54:20.304Z,99576.78
2019-03-05T15:56:50.193Z,99578.30
2019-03-05T15:59:19.855Z,99578.30
2019-03-05T16:01:49.623Z,99580.45
2019-03-05T16:04:19.383Z,99591.82
2019-03-05T16:06:50.697Z,99602.91
2019-03-05T16:09:20.655Z,99617.94
2019-03-05T16:11:50.350Z,99624.99
2019-03-05T16:14:19.979Z,99638.98
2019-03-05T16:16:51.754Z,99632.05
2019-03-05T16:19:21.362Z,99625.47
2019-03-05T16:21:51.253Z,99626.56
2019-03-05T16:24:21.269Z,99641.13
2019-03-05T16:26:51.297Z,99644.73
2019-03-05T16:29:20.995Z,99646.89
2019-03-05T16:32:00.470Z,99645.41
2019-03-05T16:34:45.837Z,99643.80
2019-03-05T16:37:21.357Z,99644.93
2019-03-05T16:39:59.252Z,99648.62
2019-03-05T16:42:45.099Z,99650.50
2019-03-05T16:45:32.557Z,99651.97
2019-03-05T16:48:20.547Z,99656.64
2019-03-05T16:51:01.735Z,99658.25
2019-03-05T16:53:48.632Z,99660.27
2019-03-05T16:56:40.540Z,99663.98
2019-03-05T16:59:27.504Z,99667.70
2019-03-05T17:02:06.412Z,99663.70
2019-03-05T17:04:46.229Z,99672.16
2019-03-05T17:07:26.633Z,99678.14
2019-03-05T17:10:18.786Z,99678.91
2019-03-05T17:12:48.438Z,99685.77
2019-03-05T17:15:18.677Z,99697.70
2019-03-05T17:17:48.579Z,99697.02
2019-03-05T17:20:18.297Z,99707.72
2019-03-05T17:22:47.926Z,99715.95
2019-03-05T17:25:19.026Z,99722.23
2019-03-05T17:27:49.109Z,99728.33
2019-03-05T17:30:19.688Z,99728.91
2019-03-05T17:32:49.688Z,99728.03
2019-03-05T17:35:19.417Z,99734.90
2019-03-05T17:37:49.689Z,99742.60
2019-03-05T17:40:19.635Z,99750.81
2019-03-05T17:42:50.258Z,99754.57
2019-03-05T17:45:20.630Z,99756.84
2019-03-05T17:47:50.722Z,99775.25
2019-03-05T17:50:20.424Z,99771.30
2019-03-05T17:52:50.152Z,99782.42
2019-03-05T17:55:24.166Z,99790.63
2019-03-05T17:57:52.473Z,99791.09
2019-03-05T18:00:28.820Z,99790.38
2019-03-05T18:02:58.693Z,99789.04
2019-03-05T18:05:28.360Z,99794.92
2019-03-05T18:07:58.338Z,99798.45
2019-03-05T18:10:28.160Z,99795.39
2019-03-05T18:12:57.875Z,99802.87
2019-03-05T18:15:28.844Z,99811.83
2019-03-05T18:17:59.042Z,99808.36
2019-03-05T18:20:28.792Z,99809.38
2019-03-05T18:22:58.497Z,99815.42
2019-03-05T18:25:29.384Z,99818.11
2019-03-05T18:27:59.533Z,99816.66
2019-03-05T18:30:29.450Z,99823.70
2019-03-05T18:32:59.372Z,99819.70
2019-03-05T18:35:29.043Z,99828.32
2019-03-05T18:37:58.688Z,99835.64
2019-03-05T18:40:28.940Z,99838.03
2019-03-05T18:42:58.937Z,99833.38
2019-03-05T18:45:29.212Z,99847.42
2019-03-05T18:47:59.112Z,99847.30
2019-03-05T18:50:28.864Z,99858.13
2019-03-05T18:52:58.666Z,99850.80
2019-03-05T18:55:28.564Z,99834.59
2019-03-05T18:57:58.346Z,99853.35
2019-03-05T19:00:28.120Z,99861.67
2019-03-05T19:02:58.172Z,99868.27
2019-03-05T19:05:27.920Z,99860.47
2019-03-05T19:07:57.895Z,99875.52
2019-03-05T19:10:27.959Z,99865.25
2019-03-05T19:12:57.849Z,99878.30
2019-03-05T19:15:27.984Z,99879.37
2019-03-05T19:17:57.749Z,99877.84
2019-03-05T19:20:27.624Z,99883.91
2019-03-05T19:22:59.827Z,99885.63
2019-03-05T19:25:30.257Z,99892.82
2019-03-05T19:28:01.320Z,99894.83
2019-03-05T19:30:32.769Z,99896.13
2019-03-05T19:33:02.717Z,99900.16
2019-03-05T19:35:32.623Z,99897.98
2019-03-05T19:38:02.568Z,99898.83
2019-03-05T19:40:33.873Z,99899.73
2019-03-05T19:43:03.818Z,99906.52
2019-03-05T19:45:33.797Z,99913.07
2019-03-05T19:48:23.032Z,99909.16
2019-03-05T19:50:52.980Z,99912.20
2019-03-05T19:53:23.074Z,99911.39
2019-03-05T19:55:53.382Z,99913.55
2019-03-05T19:58:23.154Z,99914.02
2019-03-05T20:01:14.730Z,99924.98
2019-03-05T20:03:44.810Z,99918.55
2019-03-05T20:06:16.657Z,99923.84
2019-03-05T20:08:46.947Z,99928.04
2019-03-05T20:11:17.085Z,99925.41
2019-03-05T20:13:46.841Z,99923.41
2019-03-05T20:16:18.414Z,99926.36
2019-03-05T20:18:48.143Z,99928.51
2019-03-05T20:21:18.184Z,99927.88
2019-03-05T20:23:47.905Z,99942.00
2019-03-05T20:26:17.718Z,99945.25
2019-03-05T20:28:49.508Z,99945.09
2019-03-05T20:31:20.017Z,99944.25
2019-03-05T20:33:50.213Z,99949.09
2019-03-05T20:36:21.455Z,99957.84
2019-03-05T20:38:51.531Z,99955.89
2019-03-05T20:41:21.660Z,99955.56
2019-03-05T20:43:52.182Z,99956.02
2019-03-05T20:46:27.601Z,99960.11
2019-03-05T20:48:57.730Z,99966.35
2019-03-05T20:51:27.528Z,99972.44
2019-03-05T20:53:57.568Z,99973.19
2019-03-05T20:56:27.522Z,99977.91
2019-03-05T20:58:57.593Z,99975.53
2019-03-05T21:01:27.476Z,99976.28
2019-03-05T21:03:57.474Z,99976.83
2019-03-05T21:06:27.575Z,99986.69
2019-03-05T21:08:57.305Z,99983.41
2019-03-05T21:11:27.498Z,99994.91
2019-03-05T21:13:57.216Z,100001.40
2019-03-05T21:16:27.855Z,100010.95
2019-03-05T21:18:57.595Z,100010.84
2019-03-05T21:21:27.377Z,100017.45
2019-03-05T21:23:57.446Z,100020.14
2019-03-05T21:26:27.785Z,100010.84
2019-03-05T21:29:00.839Z,100017.02
2019-03-05T21:31:31.332Z,100022.91
2019-03-05T21:34:01.391Z,100006.87
2019-03-05T21:36:31.333Z,100023.09
2019-03-05T21:39:01.713Z,100023.91
2019-03-05T21:41:33.302Z,100020.02
2019-03-05T21:44:03.525Z,100028.74
2019-03-05T21:46:33.300Z,100032.31
2019-03-05T21:49:03.017Z,100036.36
2019-03-05T21:51:32.829Z,100035.69
2019-03-05T21:54:02.535Z,100038.31
2019-03-05T21:56:32.307Z,100041.20
2019-03-05T21:59:03.070Z,100037.45
2019-03-05T22:01:33.568Z,100048.41
2019-03-05T22:04:03.643Z,100041.44
2019-03-05T22:06:34.372Z,100055.02
2019-03-05T22:09:05.053Z,100045.91
2019-03-05T22:11:36.414Z,100037.13
2019-03-05T22:14:06.186Z,100043.38
2019-03-05T22:16:36.122Z,100047.09
2019-03-05T22:19:06.481Z,100049.61
2019-03-05T22:21:36.339Z,100051.03
2019-03-05T22:24:06.261Z,100063.17
2019-03-05T22:26:35.930Z,100063.94
2019-03-05T22:29:08.467Z,100064.41
2019-03-05T22:31:38.170Z,100066.76
2019-03-05T22:34:07.953Z,100064.48
2019-03-05T22:36:37.866Z,100065.45
2019-03-05T22:39:08.090Z,100066.78
2019-03-05T22:41:38.948Z,100060.09
2019-03-05T22:44:08.620Z,100064.41
2019-03-05T22:46:38.467Z,100064.66
2019-03-05T22:49:08.280Z,100070.09
2019-03-05T22:51:37.926Z,100068.14
2019-03-05T22:54:07.820Z,100072.00
2019-03-05T22:56:37.539Z,100073.94
2019-03-05T22:59:07.634Z,100072.06
2019-03-05T23:01:40.325Z,100067.38
2019-03-05T23:04:11.877Z,100075.44
2019-03-05T23:06:42.641Z,100074.55
2019-03-05T23:09:19.223Z,100067.06
2019-03-05T23:11:49.128Z,100072.91
2019-03-05T23:14:20.333Z,100074.59
2019-03-05T23:16:50.143Z,100067.14
2019-03-05T23:19:20.050Z,100075.85
2019-03-05T23:21:49.744Z,100077.95
2019-03-05T23:24:19.560Z,100084.23
2019-03-05T23:26:49.545Z,100079.27
2019-03-05T23:29:20.922Z,100079.79
2019-03-05T23:31:50.833Z,100077.55
2019-03-05T23:34:20.497Z,100085.22
2019-03-05T23:36:50.628Z,100089.48
2019-03-05T23:39:20.278Z,100087.70
2019-03-05T23:41:50.580Z,100092.01
2019-03-05T23:44:20.058Z,100086.58
2019-03-05T23:46:50.100Z,100089.42
2019-03-05T23:49:19.822Z,100088.91
2019-03-05T23:51:49.536Z,100091.96
2019-03-05T23:54:19.651Z,100090.25
2019-03-05T23:56:49.602Z,100093.08
2019-03-05T23:59:19.408Z,100097.39
